Latest Weather Observations for Rockhampton

IDQ60801

Issued at 9:32 am EST Monday 22 December 2014 (issued every 30 minutes, with the page automatically refreshed every 10 minutes)

About weather observations | Map of weather stations | Latest weather observations for QLD | Other Formats
Station Details ID: 039083 Name: ROCKHAMPTON AERO Lat: -23.38 Lon: 150.48 Height: 10.4 m
Data from the previous 72 hours. | See also: Recent months at Rockhampton
Date/Time
EST
Temp
°C
App
Temp
°C
Dew
Point
Rel
Hum
%
Delta-T
°C
Wind Press
QNH
hPa
Press
MSL
hPa
Rain
since 9 am
mm
Dir
 
Spd
km/h
Gust
km/h
Spd
kts
Gust
kts
22/09:00am 26.7 27.2 19.2 63 4.8 ENE 15 24 8 13 1015.9 1015.8 0.0
22/08:00am 25.7 25.4 19.1 67 4.2 E 19 30 10 16 1015.6 - 0.0
22/07:30am 25.7 25.8 19.1 67 4.2 E 17 26 9 14 1015.3 - 0.0
22/06:30am 24.3 25.8 19.8 76 2.9 E 11 17 6 9 1014.8 - 0.0
22/06:00am 23.4 25.7 19.8 80 2.3 ESE 7 11 4 6 1014.6 1014.5 0.0
22/05:30am 22.5 24.7 19.5 83 1.9 SE 7 11 4 6 1014.0 - 0.0
22/05:00am 22.5 24.1 19.2 81 2.1 ESE 9 13 5 7 1013.4 - 0.0
22/04:30am 22.6 24.2 19.1 80 2.2 ESE 9 13 5 7 1013.2 - 0.0
22/04:00am 22.6 24.7 19.3 81 2.1 E 7 11 4 6 1013.1 - 0.0
22/03:30am 22.9 25.3 19.6 81 2.1 E 6 9 3 5 1013.3 - 0.0
22/03:00am 23.0 25.2 19.6 81 2.2 E 7 11 4 6 1013.2 1013.1 0.0
22/02:30am 23.2 24.9 19.4 79 2.4 E 9 11 5 6 1013.7 - 0.0
22/02:00am 23.7 24.6 19.3 76 2.8 E 13 17 7 9 1013.9 - 0.0
22/01:30am 23.9 25.2 19.2 75 3.0 E 11 17 6 9 1014.2 - 0.0
22/01:00am 23.9 25.4 19.7 77 2.7 E 11 15 6 8 1014.8 - 0.0
22/12:30am 24.2 25.8 20.0 77 2.7 E 11 17 6 9 1015.0 - 0.0
22/12:00am 24.5 26.5 19.9 75 3.0 E 9 11 5 6 1015.2 1015.1 0.0
 
Date/Time
EST
Temp
°C
App
Temp
°C
Dew
Point
Rel
Hum
%
Delta-T
°C
Wind Press
QNH
hPa
Press
MSL
hPa
Rain
since 9 am
mm
Dir
 
Spd
km/h
Gust
km/h
Spd
kts
Gust
kts
21/11:30pm 24.7 26.7 19.9 74 3.1 E 9 15 5 8 1015.2 - 0.0
21/11:00pm 24.7 26.6 20.6 78 2.7 E 11 17 6 9 1015.4 - 0.0
21/10:30pm 24.7 25.9 20.6 78 2.7 E 15 20 8 11 1015.7 - 0.0
21/10:00pm 24.7 26.2 20.6 78 2.7 E 13 20 7 11 1015.5 - 0.0
21/09:30pm 25.3 27.0 20.1 73 3.4 E 11 15 6 8 1015.5 - 0.0
21/09:00pm 25.5 27.0 19.8 70 3.7 NE 11 17 6 9 1015.0 1014.9 0.0
21/08:30pm 25.6 27.5 20.6 74 3.3 NE 11 17 6 9 1014.9 - 0.0
21/08:00pm 25.9 27.2 20.2 71 3.7 NE 13 20 7 11 1014.8 - 0.0
21/07:30pm 26.1 27.9 20.4 71 3.7 ENE 11 17 6 9 1014.9 - 0.0
21/07:00pm 26.3 27.5 20.7 71 3.7 ENE 15 22 8 12 1014.4 - 0.0
21/06:30pm 26.7 27.1 19.1 63 4.9 NE 15 22 8 12 1014.0 - 0.0
21/06:00pm 27.4 27.3 18.7 59 5.6 NNE 17 22 9 12 1013.5 1013.4 0.0
21/05:30pm 28.2 28.3 19.1 57 5.9 NE 17 24 9 13 1012.9 - 0.0
21/05:00pm 29.3 29.0 18.2 51 7.1 NE 17 22 9 12 1012.6 - 0.0
21/04:30pm 29.9 30.2 17.8 48 7.7 ENE 13 20 7 11 1012.5 - 0.0
21/03:30pm 30.3 30.8 18.3 48 7.7 NE 13 20 7 11 1012.7 - 0.0
21/03:00pm 30.5 30.4 17.8 46 8.1 E 15 19 8 10 1013.1 1013.0 0.0
21/02:30pm 30.1 30.5 18.1 48 7.7 NE 13 24 7 13 1013.3 - 0.0
21/02:00pm 30.6 30.9 18.7 49 7.7 NE 15 28 8 15 1013.6 - 0.0
21/01:30pm 30.5 31.5 18.6 49 7.7 NE 11 20 6 11 1014.0 - 0.0
21/01:00pm 30.4 31.0 18.6 49 7.6 NE 13 24 7 13 1014.5 - 0.0
21/12:30pm 30.6 30.5 17.9 46 8.1 E 15 24 8 13 1014.8 - 0.0
21/12:00pm 30.4 29.4 17.5 46 8.2 E 19 24 10 13 1015.2 1015.1 0.0
21/11:30am 29.6 28.8 16.1 44 8.4 ENE 15 20 8 11 1015.4 - 0.0
21/11:00am 29.6 29.4 17.6 48 7.6 ENE 15 22 8 12 1015.5 - 0.0
21/10:30am 29.5 29.9 19.0 53 6.8 ENE 15 22 8 12 1015.7 - 0.0
21/10:00am 28.9 28.3 17.5 50 7.2 E 17 28 9 15 1015.7 - 0.0
21/09:30am 28.9 29.3 19.0 55 6.4 ENE 15 22 8 12 1015.8 - 0.0
21/09:00am 28.5 29.7 19.8 59 5.7 E 13 26 7 14 1015.6 1015.5 0.0
21/08:30am 27.0 27.6 20.3 66 4.4 E 17 22 9 12 1015.5 - 0.0
21/08:00am 26.9 28.4 21.3 71 3.7 E 15 22 8 12 1015.4 - 0.0
21/07:30am 25.6 28.0 21.5 78 2.7 E 11 17 6 9 1015.2 - 0.0
21/07:00am 25.6 27.4 21.2 76 2.9 E 13 19 7 10 1015.0 - 0.0
21/06:30am 24.5 26.1 20.8 80 2.4 E 13 20 7 11 1014.6 - 0.0
21/06:00am 23.8 25.4 20.7 83 2.0 E 13 17 7 9 1014.2 1014.1 0.0
21/05:30am 23.1 25.5 20.8 87 1.5 E 9 13 5 7 1013.9 - 0.0
21/05:00am 23.3 25.9 20.4 84 1.9 ESE 7 11 4 6 1013.4 - 0.0
21/04:30am 23.7 25.8 20.1 80 2.3 E 9 11 5 6 1013.2 - 0.0
21/04:00am 24.0 26.6 20.0 78 2.6 E 6 9 3 5 1012.8 - 0.0
21/03:30am 24.0 26.4 20.1 79 2.5 E 7 11 4 6 1013.0 - 0.0
21/03:00am 24.3 26.5 20.3 78 2.6 E 9 11 5 6 1012.9 1012.8 0.0
21/02:30am 24.6 26.7 20.1 76 2.9 ENE 9 15 5 8 1012.9 - 0.0
21/02:00am 24.9 26.7 20.3 75 3.0 ENE 11 19 6 10 1013.0 - 0.0
21/01:00am 24.8 27.1 20.7 78 2.7 ENE 9 15 5 8 1013.5 - 0.0
21/12:30am 25.0 26.4 20.4 75 3.0 ENE 13 19 7 10 1013.6 - 0.0
21/12:00am 25.2 27.1 20.5 75 3.1 NE 11 17 6 9 1013.8 1013.7 0.0
 
Date/Time
EST
Temp
°C
App
Temp
°C
Dew
Point
Rel
Hum
%
Delta-T
°C
Wind Press
QNH
hPa
Press
MSL
hPa
Rain
since 9 am
mm
Dir
 
Spd
km/h
Gust
km/h
Spd
kts
Gust
kts
20/11:30pm 25.2 27.5 20.6 75 3.0 NE 9 15 5 8 1014.1 - 0.0
20/11:00pm 25.4 27.4 20.7 75 3.1 ENE 11 17 6 9 1014.3 - 0.0
20/10:30pm 25.5 27.5 20.8 75 3.1 ENE 11 17 6 9 1014.6 - 0.0
20/10:00pm 25.6 27.3 20.9 75 3.1 ENE 13 20 7 11 1014.6 - 0.0
20/09:30pm 25.8 27.5 20.9 74 3.2 ENE 13 20 7 11 1014.4 - 0.0
20/09:00pm 25.9 27.6 20.9 74 3.3 NE 13 20 7 11 1013.8 1013.7 0.0
20/08:30pm 25.9 27.7 21.1 75 3.2 NE 13 17 7 9 1013.5 - 0.0
20/08:00pm 25.9 28.0 20.9 74 3.3 ENE 11 19 6 10 1013.3 - 0.0
20/07:30pm 26.0 27.7 20.2 70 3.8 ENE 11 17 6 9 1013.1 - 0.0
20/07:00pm 26.1 27.3 19.8 68 4.1 ENE 13 20 7 11 1012.7 - 0.0
20/06:30pm 27.1 27.9 19.0 61 5.2 NE 13 19 7 10 1012.0 - 0.0
20/06:00pm 28.1 28.7 19.5 59 5.6 NE 15 20 8 11 1011.5 1011.4 0.0
20/05:30pm 29.3 29.1 18.4 51 7.0 ENE 17 22 9 12 1011.0 - 0.0
20/05:00pm 30.4 30.4 17.1 44 8.4 NE 13 19 7 10 1010.6 - 0.0
20/04:30pm 30.8 29.3 14.1 36 10.1 NNE 15 20 8 11 1010.3 - 0.0
20/04:00pm 31.3 30.2 15.3 38 9.9 NE 15 20 8 11 1010.3 - 0.0
20/03:30pm 31.5 30.3 14.0 34 10.6 NE 13 20 7 11 1010.4 - 0.0
20/03:00pm 32.1 31.5 16.6 39 9.8 ENE 15 24 8 13 1010.7 1010.6 0.0
20/02:30pm 31.5 31.0 16.8 41 9.3 NE 15 24 8 13 1011.0 - 0.0
20/02:00pm 32.0 31.0 16.6 39 9.7 E 17 24 9 13 1011.4 - 0.0
20/01:30pm 32.6 31.9 16.4 37 10.2 E 15 22 8 12 1011.6 - 0.0
20/01:00pm 32.7 29.8 11.1 26 12.6 ENE 17 24 9 13 1011.6 - 0.0
20/12:30pm 32.7 32.0 15.3 35 10.8 NE 13 20 7 11 1012.1 - 0.0
20/12:00pm 32.0 32.8 19.0 46 8.5 NE 13 24 7 13 1012.4 1012.3 0.0
20/11:30am 32.1 31.8 17.4 41 9.4 ESE 15 20 8 11 1012.8 - 0.0
20/11:00am 31.0 32.2 19.9 51 7.3 E 13 24 7 13 1013.3 - 0.0
20/10:30am 30.3 31.2 20.0 54 6.8 E 15 22 8 12 1013.6 - 0.0
20/10:00am 29.4 32.1 22.2 65 4.9 ESE 11 17 6 9 1013.8 - 0.0
20/09:30am 27.4 30.8 22.7 75 3.2 SE 9 13 5 7 1013.6 - 0.0
20/09:00am 26.4 30.6 23.2 82 2.2 SSE 6 11 3 6 1013.7 1013.6 0.2
20/08:57am 26.5 30.7 23.4 83 2.1 SE 7 11 4 6 1013.7 - 0.2
20/08:30am 24.7 28.2 22.8 89 1.3 E 9 13 5 7 1013.7 - 0.2
20/08:00am 23.9 27.7 22.7 93 0.8 SE 7 11 4 6 1013.6 - 0.2
20/07:47am 23.3 26.5 22.4 95 0.6 SSE 9 13 5 7 1013.6 - 0.2
20/07:30am 23.2 27.1 22.6 96 0.4 E 6 9 3 5 1013.4 - 0.2
20/07:00am 22.6 26.3 22.5 99 0.1 SSE 7 9 4 5 1013.1 - 0.2
20/06:50am 22.6 26.2 22.3 98 0.2 S 7 9 4 5 1012.8 - 0.2
20/06:30am 22.7 27.0 22.6 99 0.1 SSE 4 11 2 6 1012.6 - 0.2
20/06:19am 22.7 27.0 22.6 99 0.1 ESE 4 7 2 4 1012.6 - 0.2
20/06:00am 22.4 27.0 22.4 100 0.0 SE 2 7 1 4 1012.2 1012.1 0.2
20/05:54am 22.4 26.9 22.2 99 0.1 S 2 7 1 4 1012.1 - 0.2
20/05:48am 22.5 27.1 22.5 100 0.0 SSW 2 6 1 3 1012.0 - 0.0
20/05:39am 22.6 27.1 22.3 98 0.2 WSW 2 7 1 4 1011.9 - 0.0
20/05:30am 22.4 26.1 22.2 99 0.1 WSW 6 9 3 5 1011.8 - 0.0
20/05:27am 22.4 26.1 22.2 99 0.1 SW 6 9 3 5 1011.8 - 0.0
20/05:00am 22.6 27.6 22.5 99 0.1 CALM 0 - 0 - 1011.3 - 0.0
20/04:30am 22.4 27.2 22.2 99 0.1 CALM 0 - 0 - 1011.2 - 0.0
20/04:00am 22.1 26.7 21.8 98 0.2 CALM 0 - 0 - 1010.9 - 0.0
20/03:36am 22.1 26.8 21.9 99 0.1 CALM 0 - 0 - 1010.9 - 0.0
20/03:30am 22.1 26.8 21.9 99 0.1 CALM 0 - 0 - 1010.9 - 0.0
20/03:20am 22.1 26.7 21.8 98 0.2 CALM 0 - 0 - 1011.0 - 0.0
20/03:00am 22.2 26.9 22.0 99 0.1 CALM 0 - 0 - 1011.0 1010.9 0.0
20/02:30am 22.2 26.9 22.0 99 0.1 CALM 0 - 0 - 1011.0 - 0.0
20/02:00am 22.6 27.5 22.3 98 0.2 CALM 0 0 0 0 1011.2 - 0.0
20/01:51am 22.4 27.2 22.1 98 0.2 CALM 0 0 0 0 1011.2 - 0.0
20/01:30am 22.4 27.1 21.9 97 0.3 CALM 0 0 0 0 1011.2 - 0.0
20/01:00am 22.5 27.2 22.0 97 0.3 CALM 0 - 0 - 1011.4 - 0.0
20/12:58am 22.5 27.2 22.0 97 0.3 CALM 0 - 0 - 1011.5 - 0.0
20/12:00am 23.6 28.3 22.6 94 0.7 W 2 6 1 3 1012.2 1012.1 0.0
 
Date/Time
EST
Temp
°C
App
Temp
°C
Dew
Point
Rel
Hum
%
Delta-T
°C
Wind Press
QNH
hPa
Press
MSL
hPa
Rain
since 9 am
mm
Dir
 
Spd
km/h
Gust
km/h
Spd
kts
Gust
kts
19/11:30pm 23.5 28.5 22.5 94 0.7 CALM 0 6 0 3 1012.7 - 0.0
19/11:00pm 23.7 28.7 22.5 93 0.8 CALM 0 0 0 0 1013.1 - 0.0
19/10:30pm 24.1 28.0 22.6 91 1.0 WSW 6 7 3 4 1013.0 - 0.0
19/10:00pm 24.1 29.0 22.3 90 1.2 CALM 0 4 0 2 1013.1 - 0.0
19/09:30pm 24.5 29.4 22.4 88 1.4 CALM 0 0 0 0 1013.0 - 0.0
19/09:00pm 24.5 29.6 22.6 89 1.3 CALM 0 0 0 0 1012.6 1012.5 0.0
19/08:30pm 24.6 28.2 22.4 87 1.5 N 7 9 4 5 1012.5 - 0.0
19/08:00pm 24.8 28.1 22.6 87 1.5 N 9 11 5 6 1012.1 - 0.0
19/07:30pm 25.5 28.7 22.4 83 2.1 N 9 11 5 6 1012.0 - 0.0
19/07:00pm 26.3 29.5 22.3 78 2.7 N 9 13 5 7 1011.6 - 0.0
19/06:30pm 26.9 30.3 22.0 74 3.3 N 7 11 4 6 1011.2 - 0.0
19/06:00pm 27.1 29.8 22.2 74 3.3 N 11 15 6 8 1011.0 1010.9 0.0
19/05:30pm 27.5 30.9 22.0 72 3.7 N 7 9 4 5 1010.7 - 0.0
19/05:00pm 27.7 31.3 22.4 73 3.6 N 7 9 4 5 1010.6 - 0.0
19/04:30pm 27.8 30.3 21.8 70 4.0 NNE 11 15 6 8 1010.5 - 0.0
19/04:00pm 27.7 31.5 21.6 69 4.1 NE 4 7 2 4 1010.6 - 0.0
19/03:30pm 27.7 31.3 22.1 71 3.8 E 6 11 3 6 1010.7 - 0.0
19/03:00pm 27.0 29.9 21.8 73 3.5 ENE 9 - 5 - - 1010.7 Trace
19/02:30pm 26.7 29.2 21.8 74 3.3 NE 11 17 6 9 1010.8 - 0.0
19/02:00pm 26.0 28.4 21.5 76 3.0 E 11 17 6 9 1011.6 - 0.0
19/01:30pm 26.0 28.3 22.0 78 2.7 E 13 19 7 10 1012.0 - 0.0
19/01:00pm 25.8 27.7 21.3 76 3.0 ESE 13 19 7 10 1012.1 - 0.0
19/12:30pm 25.3 27.7 21.5 79 2.5 SE 11 19 6 10 1012.3 - 0.0
19/12:00pm 25.2 27.2 21.6 80 2.4 SE 13 19 7 10 1012.3 1012.2 0.0
19/11:30am 26.1 27.6 20.6 71 3.6 ESE 13 19 7 10 1012.5 - 0.0
19/11:00am 26.3 27.8 20.5 70 3.8 ESE 13 20 7 11 1012.7 - 0.0
19/10:30am 26.3 27.0 20.5 70 3.8 ESE 17 22 9 12 1012.6 - 0.0
19/10:00am 26.5 28.0 20.6 70 3.9 ESE 13 20 7 11 1012.6 - 0.0

Other Formats:

Comma delimited format used in spreadsheet applications
http://www.bom.gov.au/fwo/IDQ60801/IDQ60801.94374.axf

JavaScript Object Notation format (JSON) in row-major order
http://www.bom.gov.au/fwo/IDQ60801/IDQ60801.94374.json